sensor_id;sensor_type;location;lat;lon;timestamp;P1;durP1;ratioP1;P2;durP2;ratioP2
66169;SDS011;66757;44.024;20.456;2023-04-03T00:01:55;35.22;;;19.73;;
66169;SDS011;66757;44.024;20.456;2023-04-03T00:04:21;37.00;;;20.92;;
66169;SDS011;66757;44.024;20.456;2023-04-03T00:06:47;34.80;;;20.00;;
66169;SDS011;66757;44.024;20.456;2023-04-03T00:09:12;33.03;;;20.02;;
66169;SDS011;66757;44.024;20.456;2023-04-03T00:11:38;36.65;;;21.00;;
66169;SDS011;66757;44.024;20.456;2023-04-03T00:14:04;33.20;;;19.58;;
66169;SDS011;66757;44.024;20.456;2023-04-03T00:16:29;35.55;;;20.92;;
66169;SDS011;66757;44.024;20.456;2023-04-03T00:21:43;37.00;;;21.52;;
66169;SDS011;66757;44.024;20.456;2023-04-03T00:24:09;45.10;;;29.13;;
66169;SDS011;66757;44.024;20.456;2023-04-03T00:26:36;29.85;;;18.77;;
66169;SDS011;66757;44.024;20.456;2023-04-03T00:29:01;37.47;;;20.75;;
66169;SDS011;66757;44.024;20.456;2023-04-03T00:31:26;39.92;;;24.27;;
66169;SDS011;66757;44.024;20.456;2023-04-03T00:33:51;57.42;;;33.15;;
66169;SDS011;66757;44.024;20.456;2023-04-03T00:36:17;68.18;;;38.80;;
66169;SDS011;66757;44.024;20.456;2023-04-03T00:38:43;66.20;;;40.40;;
66169;SDS011;66757;44.024;20.456;2023-04-03T00:41:08;65.50;;;37.28;;
66169;SDS011;66757;44.024;20.456;2023-04-03T00:43:34;67.68;;;39.40;;
66169;SDS011;66757;44.024;20.456;2023-04-03T00:45:59;63.60;;;40.10;;
66169;SDS011;66757;44.024;20.456;2023-04-03T00:48:39;62.45;;;37.40;;
66169;SDS011;66757;44.024;20.456;2023-04-03T00:51:09;70.45;;;41.10;;
66169;SDS011;66757;44.024;20.456;2023-04-03T00:53:40;66.05;;;39.55;;
66169;SDS011;66757;44.024;20.456;2023-04-03T00:56:08;68.10;;;38.78;;
66169;SDS011;66757;44.024;20.456;2023-04-03T00:58:37;78.78;;;47.90;;
66169;SDS011;66757;44.024;20.456;2023-04-03T01:01:05;104.55;;;65.80;;
66169;SDS011;66757;44.024;20.456;2023-04-03T01:03:32;190.93;;;119.65;;
66169;SDS011;66757;44.024;20.456;2023-04-03T01:05:57;92.47;;;58.00;;
66169;SDS011;66757;44.024;20.456;2023-04-03T01:08:24;70.88;;;42.35;;
66169;SDS011;66757;44.024;20.456;2023-04-03T01:10:49;69.15;;;42.13;;
66169;SDS011;66757;44.024;20.456;2023-04-03T01:13:32;90.22;;;53.22;;
66169;SDS011;66757;44.024;20.456;2023-04-03T01:16:04;59.78;;;35.55;;
66169;SDS011;66757;44.024;20.456;2023-04-03T01:18:30;52.30;;;29.88;;
66169;SDS011;66757;44.024;20.456;2023-04-03T01:23:29;135.00;;;84.38;;
66169;SDS011;66757;44.024;20.456;2023-04-03T01:25:57;58.53;;;36.20;;
66169;SDS011;66757;44.024;20.456;2023-04-03T01:28:24;50.08;;;30.80;;
66169;SDS011;66757;44.024;20.456;2023-04-03T01:33:34;43.15;;;26.40;;
66169;SDS011;66757;44.024;20.456;2023-04-03T01:36:00;29.20;;;17.20;;
66169;SDS011;66757;44.024;20.456;2023-04-03T01:38:25;27.65;;;15.23;;
66169;SDS011;66757;44.024;20.456;2023-04-03T01:40:51;29.10;;;17.73;;
66169;SDS011;66757;44.024;20.456;2023-04-03T01:43:17;25.05;;;15.38;;
66169;SDS011;66757;44.024;20.456;2023-04-03T01:45:42;46.15;;;28.58;;
66169;SDS011;66757;44.024;20.456;2023-04-03T01:48:07;61.47;;;34.40;;
66169;SDS011;66757;44.024;20.456;2023-04-03T01:50:35;78.60;;;47.05;;
66169;SDS011;66757;44.024;20.456;2023-04-03T01:53:00;26.48;;;16.52;;
66169;SDS011;66757;44.024;20.456;2023-04-03T01:55:25;24.17;;;15.90;;
66169;SDS011;66757;44.024;20.456;2023-04-03T01:57:51;80.95;;;49.03;;
66169;SDS011;66757;44.024;20.456;2023-04-03T02:00:16;45.33;;;28.92;;
66169;SDS011;66757;44.024;20.456;2023-04-03T02:02:42;54.13;;;30.58;;
66169;SDS011;66757;44.024;20.456;2023-04-03T02:05:07;41.38;;;25.33;;
66169;SDS011;66757;44.024;20.456;2023-04-03T02:07:32;161.57;;;88.47;;
66169;SDS011;66757;44.024;20.456;2023-04-03T02:09:58;97.03;;;55.15;;
66169;SDS011;66757;44.024;20.456;2023-04-03T02:12:23;20.08;;;13.82;;
66169;SDS011;66757;44.024;20.456;2023-04-03T02:14:48;39.42;;;24.45;;
66169;SDS011;66757;44.024;20.456;2023-04-03T02:17:14;21.23;;;15.15;;
66169;SDS011;66757;44.024;20.456;2023-04-03T02:19:40;16.73;;;12.32;;
66169;SDS011;66757;44.024;20.456;2023-04-03T02:22:05;18.52;;;13.55;;
66169;SDS011;66757;44.024;20.456;2023-04-03T02:24:31;21.35;;;16.45;;
66169;SDS011;66757;44.024;20.456;2023-04-03T02:26:56;20.63;;;15.05;;
66169;SDS011;66757;44.024;20.456;2023-04-03T02:29:22;22.20;;;15.75;;
66169;SDS011;66757;44.024;20.456;2023-04-03T02:31:50;22.08;;;16.05;;
66169;SDS011;66757;44.024;20.456;2023-04-03T02:34:17;22.05;;;17.35;;
66169;SDS011;66757;44.024;20.456;2023-04-03T02:36:43;21.45;;;17.63;;
66169;SDS011;66757;44.024;20.456;2023-04-03T02:39:08;25.85;;;19.17;;
66169;SDS011;66757;44.024;20.456;2023-04-03T02:41:36;23.90;;;19.63;;
66169;SDS011;66757;44.024;20.456;2023-04-03T02:44:01;26.10;;;21.00;;
66169;SDS011;66757;44.024;20.456;2023-04-03T02:46:27;28.30;;;21.92;;
66169;SDS011;66757;44.024;20.456;2023-04-03T02:48:52;27.75;;;22.10;;
66169;SDS011;66757;44.024;20.456;2023-04-03T02:51:18;30.65;;;24.00;;
66169;SDS011;66757;44.024;20.456;2023-04-03T02:53:43;34.78;;;26.48;;
66169;SDS011;66757;44.024;20.456;2023-04-03T02:56:08;34.55;;;26.33;;
66169;SDS011;66757;44.024;20.456;2023-04-03T02:58:34;38.72;;;28.33;;
66169;SDS011;66757;44.024;20.456;2023-04-03T03:01:01;42.20;;;30.17;;
66169;SDS011;66757;44.024;20.456;2023-04-03T03:03:27;42.67;;;31.38;;
66169;SDS011;66757;44.024;20.456;2023-04-03T03:06:12;46.38;;;32.90;;
66169;SDS011;66757;44.024;20.456;2023-04-03T03:08:38;41.28;;;30.85;;
66169;SDS011;66757;44.024;20.456;2023-04-03T03:11:04;40.40;;;29.73;;
66169;SDS011;66757;44.024;20.456;2023-04-03T03:13:29;34.38;;;24.73;;
66169;SDS011;66757;44.024;20.456;2023-04-03T03:15:55;25.25;;;20.08;;
66169;SDS011;66757;44.024;20.456;2023-04-03T03:18:21;21.42;;;16.52;;
66169;SDS011;66757;44.024;20.456;2023-04-03T03:20:57;18.13;;;12.13;;
66169;SDS011;66757;44.024;20.456;2023-04-03T03:23:23;13.98;;;10.25;;
66169;SDS011;66757;44.024;20.456;2023-04-03T03:25:54;11.38;;;7.30;;
66169;SDS011;66757;44.024;20.456;2023-04-03T03:28:19;11.00;;;7.90;;
66169;SDS011;66757;44.024;20.456;2023-04-03T03:30:45;12.77;;;9.57;;
66169;SDS011;66757;44.024;20.456;2023-04-03T03:33:10;18.13;;;12.27;;
66169;SDS011;66757;44.024;20.456;2023-04-03T03:35:35;22.33;;;15.32;;
66169;SDS011;66757;44.024;20.456;2023-04-03T03:38:01;27.63;;;18.55;;
66169;SDS011;66757;44.024;20.456;2023-04-03T03:40:28;29.80;;;19.67;;
66169;SDS011;66757;44.024;20.456;2023-04-03T03:42:53;29.83;;;19.13;;
66169;SDS011;66757;44.024;20.456;2023-04-03T03:45:18;32.42;;;19.25;;
66169;SDS011;66757;44.024;20.456;2023-04-03T03:47:44;28.20;;;19.10;;
66169;SDS011;66757;44.024;20.456;2023-04-03T03:50:10;28.67;;;18.55;;
66169;SDS011;66757;44.024;20.456;2023-04-03T03:52:36;29.70;;;20.60;;
66169;SDS011;66757;44.024;20.456;2023-04-03T03:55:02;30.38;;;21.17;;
66169;SDS011;66757;44.024;20.456;2023-04-03T03:57:28;27.00;;;19.80;;
66169;SDS011;66757;44.024;20.456;2023-04-03T03:59:54;25.38;;;18.80;;
66169;SDS011;66757;44.024;20.456;2023-04-03T04:02:20;21.90;;;16.83;;
66169;SDS011;66757;44.024;20.456;2023-04-03T04:04:46;25.38;;;17.10;;
66169;SDS011;66757;44.024;20.456;2023-04-03T04:07:12;22.50;;;16.90;;
66169;SDS011;66757;44.024;20.456;2023-04-03T04:09:37;25.42;;;17.63;;
66169;SDS011;66757;44.024;20.456;2023-04-03T04:12:02;20.15;;;15.32;;
66169;SDS011;66757;44.024;20.456;2023-04-03T04:14:28;23.05;;;15.63;;
66169;SDS011;66757;44.024;20.456;2023-04-03T04:16:54;18.38;;;13.43;;
66169;SDS011;66757;44.024;20.456;2023-04-03T04:19:20;15.60;;;12.02;;
66169;SDS011;66757;44.024;20.456;2023-04-03T04:21:46;19.00;;;13.65;;
66169;SDS011;66757;44.024;20.456;2023-04-03T04:24:11;19.58;;;14.43;;
66169;SDS011;66757;44.024;20.456;2023-04-03T04:26:36;18.27;;;13.93;;
66169;SDS011;66757;44.024;20.456;2023-04-03T04:29:02;19.17;;;13.30;;
66169;SDS011;66757;44.024;20.456;2023-04-03T04:31:28;16.05;;;12.23;;
66169;SDS011;66757;44.024;20.456;2023-04-03T04:33:54;17.77;;;12.52;;
66169;SDS011;66757;44.024;20.456;2023-04-03T04:36:19;17.55;;;13.27;;
66169;SDS011;66757;44.024;20.456;2023-04-03T04:38:44;18.92;;;13.27;;
66169;SDS011;66757;44.024;20.456;2023-04-03T04:41:12;22.80;;;13.93;;
66169;SDS011;66757;44.024;20.456;2023-04-03T04:43:37;21.05;;;14.65;;
66169;SDS011;66757;44.024;20.456;2023-04-03T04:48:28;22.55;;;16.58;;
66169;SDS011;66757;44.024;20.456;2023-04-03T04:50:54;24.83;;;17.65;;
66169;SDS011;66757;44.024;20.456;2023-04-03T04:53:19;26.98;;;18.88;;
66169;SDS011;66757;44.024;20.456;2023-04-03T04:55:45;22.63;;;15.50;;
66169;SDS011;66757;44.024;20.456;2023-04-03T04:58:10;24.83;;;16.38;;
66169;SDS011;66757;44.024;20.456;2023-04-03T05:00:36;22.27;;;15.38;;
66169;SDS011;66757;44.024;20.456;2023-04-03T05:03:02;23.52;;;16.27;;
66169;SDS011;66757;44.024;20.456;2023-04-03T05:05:27;20.85;;;14.63;;
66169;SDS011;66757;44.024;20.456;2023-04-03T05:07:53;18.58;;;14.20;;
66169;SDS011;66757;44.024;20.456;2023-04-03T05:10:20;19.52;;;13.02;;
66169;SDS011;66757;44.024;20.456;2023-04-03T05:12:46;18.42;;;12.95;;
66169;SDS011;66757;44.024;20.456;2023-04-03T05:15:11;18.65;;;14.30;;
66169;SDS011;66757;44.024;20.456;2023-04-03T05:17:37;19.67;;;14.27;;
66169;SDS011;66757;44.024;20.456;2023-04-03T05:20:03;20.70;;;14.10;;
66169;SDS011;66757;44.024;20.456;2023-04-03T05:22:29;22.33;;;16.45;;
66169;SDS011;66757;44.024;20.456;2023-04-03T05:24:55;19.02;;;12.65;;
66169;SDS011;66757;44.024;20.456;2023-04-03T05:27:21;20.02;;;14.27;;
66169;SDS011;66757;44.024;20.456;2023-04-03T05:29:49;21.17;;;14.23;;
66169;SDS011;66757;44.024;20.456;2023-04-03T05:32:14;15.95;;;12.15;;
66169;SDS011;66757;44.024;20.456;2023-04-03T05:34:39;20.10;;;14.68;;
66169;SDS011;66757;44.024;20.456;2023-04-03T05:37:05;34.03;;;19.85;;
66169;SDS011;66757;44.024;20.456;2023-04-03T05:39:31;13.13;;;10.27;;
66169;SDS011;66757;44.024;20.456;2023-04-03T05:41:57;23.73;;;19.75;;
66169;SDS011;66757;44.024;20.456;2023-04-03T05:44:22;22.38;;;16.95;;
66169;SDS011;66757;44.024;20.456;2023-04-03T05:46:47;17.60;;;12.63;;
66169;SDS011;66757;44.024;20.456;2023-04-03T05:49:13;20.80;;;12.63;;
66169;SDS011;66757;44.024;20.456;2023-04-03T05:51:39;20.15;;;13.35;;
66169;SDS011;66757;44.024;20.456;2023-04-03T05:54:19;17.95;;;12.60;;
66169;SDS011;66757;44.024;20.456;2023-04-03T05:56:46;24.33;;;15.15;;
66169;SDS011;66757;44.024;20.456;2023-04-03T05:59:13;18.48;;;12.77;;
66169;SDS011;66757;44.024;20.456;2023-04-03T06:01:39;32.30;;;20.15;;
66169;SDS011;66757;44.024;20.456;2023-04-03T06:04:04;24.70;;;16.27;;
66169;SDS011;66757;44.024;20.456;2023-04-03T06:06:47;37.80;;;23.45;;
66169;SDS011;66757;44.024;20.456;2023-04-03T06:09:13;57.15;;;33.88;;
66169;SDS011;66757;44.024;20.456;2023-04-03T06:11:38;66.32;;;40.17;;
66169;SDS011;66757;44.024;20.456;2023-04-03T06:14:04;28.73;;;20.48;;
66169;SDS011;66757;44.024;20.456;2023-04-03T06:16:29;21.58;;;16.95;;
66169;SDS011;66757;44.024;20.456;2023-04-03T06:18:55;18.52;;;15.02;;
66169;SDS011;66757;44.024;20.456;2023-04-03T06:21:21;14.68;;;9.07;;
66169;SDS011;66757;44.024;20.456;2023-04-03T06:23:47;14.00;;;9.63;;
66169;SDS011;66757;44.024;20.456;2023-04-03T06:26:12;13.75;;;11.07;;
66169;SDS011;66757;44.024;20.456;2023-04-03T06:28:38;11.38;;;8.27;;
66169;SDS011;66757;44.024;20.456;2023-04-03T06:31:03;10.75;;;7.55;;
66169;SDS011;66757;44.024;20.456;2023-04-03T06:33:29;29.65;;;19.40;;
66169;SDS011;66757;44.024;20.456;2023-04-03T06:35:56;25.83;;;15.05;;
66169;SDS011;66757;44.024;20.456;2023-04-03T06:38:22;47.13;;;25.58;;
66169;SDS011;66757;44.024;20.456;2023-04-03T06:40:48;22.25;;;12.98;;
66169;SDS011;66757;44.024;20.456;2023-04-03T06:43:13;25.90;;;17.45;;
66169;SDS011;66757;44.024;20.456;2023-04-03T06:45:38;21.10;;;12.57;;
66169;SDS011;66757;44.024;20.456;2023-04-03T06:48:04;10.98;;;7.18;;
66169;SDS011;66757;44.024;20.456;2023-04-03T06:50:30;13.88;;;8.93;;
66169;SDS011;66757;44.024;20.456;2023-04-03T06:52:57;12.93;;;8.50;;
66169;SDS011;66757;44.024;20.456;2023-04-03T06:55:22;13.30;;;8.85;;
66169;SDS011;66757;44.024;20.456;2023-04-03T06:57:48;11.88;;;8.40;;
66169;SDS011;66757;44.024;20.456;2023-04-03T07:00:13;11.48;;;8.55;;
66169;SDS011;66757;44.024;20.456;2023-04-03T07:02:40;8.13;;;5.75;;
66169;SDS011;66757;44.024;20.456;2023-04-03T07:05:07;12.88;;;8.57;;
66169;SDS011;66757;44.024;20.456;2023-04-03T07:07:34;18.00;;;11.55;;
66169;SDS011;66757;44.024;20.456;2023-04-03T07:10:02;15.55;;;13.13;;
66169;SDS011;66757;44.024;20.456;2023-04-03T07:12:27;19.27;;;14.63;;
66169;SDS011;66757;44.024;20.456;2023-04-03T07:14:54;12.00;;;8.63;;
66169;SDS011;66757;44.024;20.456;2023-04-03T07:17:19;10.93;;;8.75;;
66169;SDS011;66757;44.024;20.456;2023-04-03T07:19:45;9.65;;;7.80;;
66169;SDS011;66757;44.024;20.456;2023-04-03T07:22:10;6.90;;;4.18;;
66169;SDS011;66757;44.024;20.456;2023-04-03T07:24:36;9.23;;;6.38;;
66169;SDS011;66757;44.024;20.456;2023-04-03T07:27:03;9.93;;;7.22;;
66169;SDS011;66757;44.024;20.456;2023-04-03T07:29:29;9.90;;;6.78;;
66169;SDS011;66757;44.024;20.456;2023-04-03T07:31:56;9.15;;;5.45;;
66169;SDS011;66757;44.024;20.456;2023-04-03T07:34:21;4.25;;;2.75;;
66169;SDS011;66757;44.024;20.456;2023-04-03T07:36:46;5.10;;;4.05;;
66169;SDS011;66757;44.024;20.456;2023-04-03T07:39:12;11.73;;;7.22;;
66169;SDS011;66757;44.024;20.456;2023-04-03T07:41:37;8.82;;;5.35;;
66169;SDS011;66757;44.024;20.456;2023-04-03T07:44:03;11.20;;;7.15;;
66169;SDS011;66757;44.024;20.456;2023-04-03T07:46:29;6.47;;;4.68;;
66169;SDS011;66757;44.024;20.456;2023-04-03T07:48:54;4.80;;;3.70;;
66169;SDS011;66757;44.024;20.456;2023-04-03T07:51:20;6.55;;;4.45;;
66169;SDS011;66757;44.024;20.456;2023-04-03T07:53:46;9.88;;;6.30;;
66169;SDS011;66757;44.024;20.456;2023-04-03T07:56:11;18.45;;;12.07;;
66169;SDS011;66757;44.024;20.456;2023-04-03T07:58:38;17.30;;;11.30;;
66169;SDS011;66757;44.024;20.456;2023-04-03T08:01:04;18.35;;;14.15;;
66169;SDS011;66757;44.024;20.456;2023-04-03T08:03:30;11.13;;;7.35;;
66169;SDS011;66757;44.024;20.456;2023-04-03T08:06:00;14.88;;;11.80;;
66169;SDS011;66757;44.024;20.456;2023-04-03T08:08:27;14.02;;;11.63;;
66169;SDS011;66757;44.024;20.456;2023-04-03T08:10:57;11.80;;;9.20;;
66169;SDS011;66757;44.024;20.456;2023-04-03T08:13:22;7.82;;;6.57;;
66169;SDS011;66757;44.024;20.456;2023-04-03T08:15:49;10.63;;;8.07;;
66169;SDS011;66757;44.024;20.456;2023-04-03T08:18:16;10.90;;;6.25;;
66169;SDS011;66757;44.024;20.456;2023-04-03T08:20:43;11.27;;;7.32;;
66169;SDS011;66757;44.024;20.456;2023-04-03T08:23:10;10.45;;;8.00;;
66169;SDS011;66757;44.024;20.456;2023-04-03T08:25:39;25.20;;;15.98;;
66169;SDS011;66757;44.024;20.456;2023-04-03T08:28:05;6.43;;;5.13;;
66169;SDS011;66757;44.024;20.456;2023-04-03T08:30:30;7.95;;;7.07;;
66169;SDS011;66757;44.024;20.456;2023-04-03T08:32:56;9.43;;;7.65;;
66169;SDS011;66757;44.024;20.456;2023-04-03T08:35:21;12.40;;;9.85;;
66169;SDS011;66757;44.024;20.456;2023-04-03T08:37:46;9.63;;;7.60;;
66169;SDS011;66757;44.024;20.456;2023-04-03T08:40:15;11.98;;;10.13;;
66169;SDS011;66757;44.024;20.456;2023-04-03T08:42:45;9.68;;;7.60;;
66169;SDS011;66757;44.024;20.456;2023-04-03T08:45:19;6.53;;;5.88;;
66169;SDS011;66757;44.024;20.456;2023-04-03T08:47:55;8.07;;;6.90;;
66169;SDS011;66757;44.024;20.456;2023-04-03T08:50:24;8.07;;;6.55;;
66169;SDS011;66757;44.024;20.456;2023-04-03T08:52:52;8.98;;;6.72;;
66169;SDS011;66757;44.024;20.456;2023-04-03T08:58:12;16.05;;;12.30;;
66169;SDS011;66757;44.024;20.456;2023-04-03T09:00:45;9.27;;;7.63;;
66169;SDS011;66757;44.024;20.456;2023-04-03T09:03:15;10.05;;;7.78;;
66169;SDS011;66757;44.024;20.456;2023-04-03T09:05:44;9.38;;;7.75;;
66169;SDS011;66757;44.024;20.456;2023-04-03T09:08:13;9.85;;;7.00;;
66169;SDS011;66757;44.024;20.456;2023-04-03T09:10:41;7.35;;;5.85;;
66169;SDS011;66757;44.024;20.456;2023-04-03T09:15:38;13.40;;;7.32;;
66169;SDS011;66757;44.024;20.456;2023-04-03T09:18:05;9.18;;;5.47;;
66169;SDS011;66757;44.024;20.456;2023-04-03T09:25:49;15.77;;;10.50;;
66169;SDS011;66757;44.024;20.456;2023-04-03T09:28:16;21.58;;;15.40;;
66169;SDS011;66757;44.024;20.456;2023-04-03T09:30:41;12.45;;;9.85;;
66169;SDS011;66757;44.024;20.456;2023-04-03T09:33:07;7.07;;;5.18;;
66169;SDS011;66757;44.024;20.456;2023-04-03T09:35:36;9.52;;;6.43;;
66169;SDS011;66757;44.024;20.456;2023-04-03T09:40:39;14.48;;;8.55;;
66169;SDS011;66757;44.024;20.456;2023-04-03T09:43:24;11.15;;;6.80;;
66169;SDS011;66757;44.024;20.456;2023-04-03T09:48:18;10.07;;;7.40;;
66169;SDS011;66757;44.024;20.456;2023-04-03T09:55:54;9.65;;;6.45;;
66169;SDS011;66757;44.024;20.456;2023-04-03T09:58:31;13.77;;;10.52;;
66169;SDS011;66757;44.024;20.456;2023-04-03T10:00:59;18.55;;;11.85;;
66169;SDS011;66757;44.024;20.456;2023-04-03T10:03:30;15.27;;;10.82;;
66169;SDS011;66757;44.024;20.456;2023-04-03T10:05:57;11.68;;;7.80;;
66169;SDS011;66757;44.024;20.456;2023-04-03T10:11:04;22.88;;;17.23;;
66169;SDS011;66757;44.024;20.456;2023-04-03T10:13:30;35.53;;;20.33;;
66169;SDS011;66757;44.024;20.456;2023-04-03T10:15:56;9.82;;;7.28;;
66169;SDS011;66757;44.024;20.456;2023-04-03T10:18:28;32.22;;;15.23;;
66169;SDS011;66757;44.024;20.456;2023-04-03T10:20:57;26.35;;;14.15;;
66169;SDS011;66757;44.024;20.456;2023-04-03T10:23:26;43.10;;;22.92;;
66169;SDS011;66757;44.024;20.456;2023-04-03T10:31:08;13.93;;;8.68;;
66169;SDS011;66757;44.024;20.456;2023-04-03T10:33:43;27.05;;;17.48;;
66169;SDS011;66757;44.024;20.456;2023-04-03T10:36:19;15.25;;;9.95;;
66169;SDS011;66757;44.024;20.456;2023-04-03T10:41:32;35.63;;;21.65;;
66169;SDS011;66757;44.024;20.456;2023-04-03T10:44:09;26.15;;;15.98;;
66169;SDS011;66757;44.024;20.456;2023-04-03T10:46:47;41.88;;;25.35;;
66169;SDS011;66757;44.024;20.456;2023-04-03T10:51:46;27.45;;;17.20;;
66169;SDS011;66757;44.024;20.456;2023-04-03T10:54:20;22.40;;;15.57;;
66169;SDS011;66757;44.024;20.456;2023-04-03T10:57:03;21.77;;;14.50;;
66169;SDS011;66757;44.024;20.456;2023-04-03T11:02:13;15.05;;;11.05;;
66169;SDS011;66757;44.024;20.456;2023-04-03T11:04:40;19.23;;;14.07;;
66169;SDS011;66757;44.024;20.456;2023-04-03T11:07:13;29.45;;;19.83;;
66169;SDS011;66757;44.024;20.456;2023-04-03T11:09:41;35.17;;;24.90;;
66169;SDS011;66757;44.024;20.456;2023-04-03T11:12:13;27.08;;;18.02;;
66169;SDS011;66757;44.024;20.456;2023-04-03T11:14:39;16.38;;;12.70;;
66169;SDS011;66757;44.024;20.456;2023-04-03T11:19:39;19.92;;;13.70;;
66169;SDS011;66757;44.024;20.456;2023-04-03T11:22:16;22.27;;;15.60;;
66169;SDS011;66757;44.024;20.456;2023-04-03T11:24:43;55.47;;;35.35;;
66169;SDS011;66757;44.024;20.456;2023-04-03T11:27:16;29.77;;;21.63;;
66169;SDS011;66757;44.024;20.456;2023-04-03T11:29:43;29.65;;;21.17;;
66169;SDS011;66757;44.024;20.456;2023-04-03T11:32:20;21.20;;;16.65;;
66169;SDS011;66757;44.024;20.456;2023-04-03T11:34:53;25.55;;;17.23;;
66169;SDS011;66757;44.024;20.456;2023-04-03T11:42:35;49.58;;;31.13;;
66169;SDS011;66757;44.024;20.456;2023-04-03T11:48:09;38.45;;;26.63;;
66169;SDS011;66757;44.024;20.456;2023-04-03T11:50:51;36.75;;;27.42;;
66169;SDS011;66757;44.024;20.456;2023-04-03T11:58:12;29.50;;;21.00;;
66169;SDS011;66757;44.024;20.456;2023-04-03T12:00:46;30.48;;;20.77;;
66169;SDS011;66757;44.024;20.456;2023-04-03T12:08:27;34.13;;;24.35;;
66169;SDS011;66757;44.024;20.456;2023-04-03T12:11:13;33.80;;;23.83;;
66169;SDS011;66757;44.024;20.456;2023-04-03T12:13:42;26.73;;;20.95;;
66169;SDS011;66757;44.024;20.456;2023-04-03T12:29:24;39.33;;;26.25;;
66169;SDS011;66757;44.024;20.456;2023-04-03T12:32:26;37.40;;;26.38;;
66169;SDS011;66757;44.024;20.456;2023-04-03T12:40:31;51.65;;;33.00;;
66169;SDS011;66757;44.024;20.456;2023-04-03T12:45:22;28.42;;;22.00;;
66169;SDS011;66757;44.024;20.456;2023-04-03T12:47:51;32.08;;;22.85;;
66169;SDS011;66757;44.024;20.456;2023-04-03T12:50:24;31.95;;;23.23;;
66169;SDS011;66757;44.024;20.456;2023-04-03T12:52:52;27.65;;;21.15;;
66169;SDS011;66757;44.024;20.456;2023-04-03T12:55:20;33.78;;;24.58;;
66169;SDS011;66757;44.024;20.456;2023-04-03T12:57:45;29.85;;;21.98;;
66169;SDS011;66757;44.024;20.456;2023-04-03T13:02:46;32.78;;;23.48;;
66169;SDS011;66757;44.024;20.456;2023-04-03T13:05:16;34.65;;;23.88;;
66169;SDS011;66757;44.024;20.456;2023-04-03T13:07:43;36.22;;;25.88;;
66169;SDS011;66757;44.024;20.456;2023-04-03T13:12:35;28.30;;;21.33;;
66169;SDS011;66757;44.024;20.456;2023-04-03T13:17:58;38.03;;;28.02;;
66169;SDS011;66757;44.024;20.456;2023-04-03T13:20:28;44.00;;;30.23;;
66169;SDS011;66757;44.024;20.456;2023-04-03T13:23:00;37.38;;;26.15;;
66169;SDS011;66757;44.024;20.456;2023-04-03T13:25:27;43.15;;;30.73;;
66169;SDS011;66757;44.024;20.456;2023-04-03T13:27:54;31.23;;;25.25;;
66169;SDS011;66757;44.024;20.456;2023-04-03T13:30:28;35.17;;;24.17;;
66169;SDS011;66757;44.024;20.456;2023-04-03T13:32:55;39.70;;;27.65;;
66169;SDS011;66757;44.024;20.456;2023-04-03T13:35:28;37.85;;;24.75;;
66169;SDS011;66757;44.024;20.456;2023-04-03T13:37:56;28.98;;;22.52;;
66169;SDS011;66757;44.024;20.456;2023-04-03T13:40:21;29.15;;;22.17;;
66169;SDS011;66757;44.024;20.456;2023-04-03T13:42:57;28.67;;;21.88;;
66169;SDS011;66757;44.024;20.456;2023-04-03T13:45:28;31.90;;;22.77;;
66169;SDS011;66757;44.024;20.456;2023-04-03T13:48:39;26.92;;;21.42;;
66169;SDS011;66757;44.024;20.456;2023-04-03T13:53:23;28.33;;;20.60;;
66169;SDS011;66757;44.024;20.456;2023-04-03T13:56:00;35.65;;;27.33;;
66169;SDS011;66757;44.024;20.456;2023-04-03T13:58:31;34.20;;;23.95;;
66169;SDS011;66757;44.024;20.456;2023-04-03T14:03:31;34.75;;;24.15;;
66169;SDS011;66757;44.024;20.456;2023-04-03T14:05:57;34.15;;;22.85;;
66169;SDS011;66757;44.024;20.456;2023-04-03T14:08:23;32.55;;;23.15;;
66169;SDS011;66757;44.024;20.456;2023-04-03T14:10:48;33.75;;;25.08;;
66169;SDS011;66757;44.024;20.456;2023-04-03T14:13:15;38.83;;;25.85;;
66169;SDS011;66757;44.024;20.456;2023-04-03T14:15:41;40.65;;;27.40;;
66169;SDS011;66757;44.024;20.456;2023-04-03T14:18:10;37.55;;;25.30;;
66169;SDS011;66757;44.024;20.456;2023-04-03T14:20:35;47.10;;;30.15;;
66169;SDS011;66757;44.024;20.456;2023-04-03T14:23:01;50.50;;;31.70;;
66169;SDS011;66757;44.024;20.456;2023-04-03T14:25:28;40.25;;;29.17;;
66169;SDS011;66757;44.024;20.456;2023-04-03T14:27:54;38.47;;;26.55;;
66169;SDS011;66757;44.024;20.456;2023-04-03T14:30:24;37.55;;;26.98;;
66169;SDS011;66757;44.024;20.456;2023-04-03T14:32:50;49.17;;;31.77;;
66169;SDS011;66757;44.024;20.456;2023-04-03T14:35:16;48.67;;;32.70;;
66169;SDS011;66757;44.024;20.456;2023-04-03T14:37:42;39.63;;;27.52;;
66169;SDS011;66757;44.024;20.456;2023-04-03T14:40:08;39.25;;;28.90;;
66169;SDS011;66757;44.024;20.456;2023-04-03T14:42:35;40.83;;;28.30;;
66169;SDS011;66757;44.024;20.456;2023-04-03T14:45:01;43.22;;;29.35;;
66169;SDS011;66757;44.024;20.456;2023-04-03T14:47:27;42.50;;;30.98;;
66169;SDS011;66757;44.024;20.456;2023-04-03T14:49:53;41.97;;;30.23;;
66169;SDS011;66757;44.024;20.456;2023-04-03T14:52:20;36.33;;;27.15;;
66169;SDS011;66757;44.024;20.456;2023-04-03T14:54:47;49.95;;;32.10;;
66169;SDS011;66757;44.024;20.456;2023-04-03T14:57:14;37.90;;;26.42;;
66169;SDS011;66757;44.024;20.456;2023-04-03T14:59:40;45.33;;;30.02;;
66169;SDS011;66757;44.024;20.456;2023-04-03T15:02:12;45.45;;;31.40;;
66169;SDS011;66757;44.024;20.456;2023-04-03T15:04:48;41.30;;;28.60;;
66169;SDS011;66757;44.024;20.456;2023-04-03T15:07:13;47.53;;;31.98;;
66169;SDS011;66757;44.024;20.456;2023-04-03T15:09:39;43.72;;;30.13;;
66169;SDS011;66757;44.024;20.456;2023-04-03T15:12:07;43.00;;;30.02;;
66169;SDS011;66757;44.024;20.456;2023-04-03T15:14:33;42.80;;;30.73;;
66169;SDS011;66757;44.024;20.456;2023-04-03T15:16:58;46.05;;;32.38;;
66169;SDS011;66757;44.024;20.456;2023-04-03T15:19:23;115.22;;;76.47;;
66169;SDS011;66757;44.024;20.456;2023-04-03T15:21:49;39.42;;;27.80;;
66169;SDS011;66757;44.024;20.456;2023-04-03T15:24:14;40.88;;;28.48;;
66169;SDS011;66757;44.024;20.456;2023-04-03T15:26:40;43.47;;;29.55;;
66169;SDS011;66757;44.024;20.456;2023-04-03T15:29:06;42.45;;;28.95;;
66169;SDS011;66757;44.024;20.456;2023-04-03T15:31:31;46.15;;;31.02;;
66169;SDS011;66757;44.024;20.456;2023-04-03T15:33:57;38.78;;;26.13;;
66169;SDS011;66757;44.024;20.456;2023-04-03T15:36:22;54.20;;;34.80;;
66169;SDS011;66757;44.024;20.456;2023-04-03T15:38:49;47.85;;;30.80;;
66169;SDS011;66757;44.024;20.456;2023-04-03T15:41:14;78.03;;;42.80;;
66169;SDS011;66757;44.024;20.456;2023-04-03T15:43:40;53.15;;;34.67;;
66169;SDS011;66757;44.024;20.456;2023-04-03T15:46:05;38.00;;;26.42;;
66169;SDS011;66757;44.024;20.456;2023-04-03T15:48:30;40.65;;;28.05;;
66169;SDS011;66757;44.024;20.456;2023-04-03T15:50:57;40.25;;;25.63;;
66169;SDS011;66757;44.024;20.456;2023-04-03T15:53:22;42.13;;;25.25;;
66169;SDS011;66757;44.024;20.456;2023-04-03T15:55:47;51.00;;;30.58;;